sensor_id;sensor_type;location;lat;lon;timestamp;P1;durP1;ratioP1;P2;durP2;ratioP2
25982;SDS011;13773;48.868;10.730;2023-04-07T00:00:51;15.00;;;10.10;;
25982;SDS011;13773;48.868;10.730;2023-04-07T00:03:16;12.43;;;9.80;;
25982;SDS011;13773;48.868;10.730;2023-04-07T00:05:42;13.93;;;9.70;;
25982;SDS011;13773;48.868;10.730;2023-04-07T00:08:08;13.13;;;9.60;;
25982;SDS011;13773;48.868;10.730;2023-04-07T00:10:33;16.80;;;10.27;;
25982;SDS011;13773;48.868;10.730;2023-04-07T00:13:00;13.33;;;9.97;;
25982;SDS011;13773;48.868;10.730;2023-04-07T00:15:26;11.40;;;9.40;;
25982;SDS011;13773;48.868;10.730;2023-04-07T00:17:52;12.63;;;10.07;;
25982;SDS011;13773;48.868;10.730;2023-04-07T00:20:18;12.37;;;9.47;;
25982;SDS011;13773;48.868;10.730;2023-04-07T00:22:43;14.53;;;9.33;;
25982;SDS011;13773;48.868;10.730;2023-04-07T00:25:09;13.13;;;9.87;;
25982;SDS011;13773;48.868;10.730;2023-04-07T00:27:35;11.60;;;9.37;;
25982;SDS011;13773;48.868;10.730;2023-04-07T00:30:01;11.93;;;9.20;;
25982;SDS011;13773;48.868;10.730;2023-04-07T00:32:27;12.40;;;9.47;;
25982;SDS011;13773;48.868;10.730;2023-04-07T00:34:53;10.90;;;9.10;;
25982;SDS011;13773;48.868;10.730;2023-04-07T00:37:18;13.10;;;9.70;;
25982;SDS011;13773;48.868;10.730;2023-04-07T00:39:44;12.10;;;9.43;;
25982;SDS011;13773;48.868;10.730;2023-04-07T00:42:10;11.30;;;9.30;;
25982;SDS011;13773;48.868;10.730;2023-04-07T00:44:36;12.10;;;9.53;;
25982;SDS011;13773;48.868;10.730;2023-04-07T00:47:02;14.33;;;11.13;;
25982;SDS011;13773;48.868;10.730;2023-04-07T00:49:28;14.37;;;10.20;;
25982;SDS011;13773;48.868;10.730;2023-04-07T00:51:54;16.03;;;11.47;;
25982;SDS011;13773;48.868;10.730;2023-04-07T00:54:24;15.23;;;10.97;;
25982;SDS011;13773;48.868;10.730;2023-04-07T00:56:51;14.50;;;11.07;;
25982;SDS011;13773;48.868;10.730;2023-04-07T00:59:17;14.40;;;10.10;;
25982;SDS011;13773;48.868;10.730;2023-04-07T01:04:32;16.47;;;11.63;;
25982;SDS011;13773;48.868;10.730;2023-04-07T01:07:08;13.60;;;10.30;;
25982;SDS011;13773;48.868;10.730;2023-04-07T01:09:54;15.47;;;10.97;;
25982;SDS011;13773;48.868;10.730;2023-04-07T01:12:28;14.67;;;10.70;;
25982;SDS011;13773;48.868;10.730;2023-04-07T01:15:11;14.57;;;10.07;;
25982;SDS011;13773;48.868;10.730;2023-04-07T01:17:47;13.70;;;10.57;;
25982;SDS011;13773;48.868;10.730;2023-04-07T01:20:18;16.23;;;10.63;;
25982;SDS011;13773;48.868;10.730;2023-04-07T01:22:49;14.03;;;10.97;;
25982;SDS011;13773;48.868;10.730;2023-04-07T01:30:38;15.17;;;10.33;;
25982;SDS011;13773;48.868;10.730;2023-04-07T01:33:05;14.23;;;10.90;;
25982;SDS011;13773;48.868;10.730;2023-04-07T01:35:34;14.07;;;10.00;;
25982;SDS011;13773;48.868;10.730;2023-04-07T01:38:02;14.97;;;10.67;;
25982;SDS011;13773;48.868;10.730;2023-04-07T01:40:29;13.90;;;10.43;;
25982;SDS011;13773;48.868;10.730;2023-04-07T01:42:57;14.17;;;10.10;;
25982;SDS011;13773;48.868;10.730;2023-04-07T01:45:23;13.00;;;10.60;;
25982;SDS011;13773;48.868;10.730;2023-04-07T01:47:51;13.80;;;10.53;;
25982;SDS011;13773;48.868;10.730;2023-04-07T01:50:18;14.57;;;10.70;;
25982;SDS011;13773;48.868;10.730;2023-04-07T01:52:45;16.80;;;10.73;;
25982;SDS011;13773;48.868;10.730;2023-04-07T01:55:11;13.93;;;10.67;;
25982;SDS011;13773;48.868;10.730;2023-04-07T01:57:37;13.13;;;10.47;;
25982;SDS011;13773;48.868;10.730;2023-04-07T02:00:04;15.37;;;10.90;;
25982;SDS011;13773;48.868;10.730;2023-04-07T02:02:31;15.27;;;10.83;;
25982;SDS011;13773;48.868;10.730;2023-04-07T02:05:01;17.87;;;10.73;;
25982;SDS011;13773;48.868;10.730;2023-04-07T02:07:30;14.03;;;10.73;;
25982;SDS011;13773;48.868;10.730;2023-04-07T02:09:57;16.17;;;12.23;;
25982;SDS011;13773;48.868;10.730;2023-04-07T02:12:26;16.40;;;11.40;;
25982;SDS011;13773;48.868;10.730;2023-04-07T02:14:54;14.87;;;11.53;;
25982;SDS011;13773;48.868;10.730;2023-04-07T02:17:22;17.73;;;11.93;;
25982;SDS011;13773;48.868;10.730;2023-04-07T02:19:51;15.63;;;12.70;;
25982;SDS011;13773;48.868;10.730;2023-04-07T02:22:19;14.47;;;12.67;;
25982;SDS011;13773;48.868;10.730;2023-04-07T02:24:45;16.23;;;11.83;;
25982;SDS011;13773;48.868;10.730;2023-04-07T02:27:11;16.77;;;12.50;;
25982;SDS011;13773;48.868;10.730;2023-04-07T02:29:37;14.47;;;12.57;;
25982;SDS011;13773;48.868;10.730;2023-04-07T02:32:02;15.30;;;11.97;;
25982;SDS011;13773;48.868;10.730;2023-04-07T02:34:29;13.87;;;10.80;;
25982;SDS011;13773;48.868;10.730;2023-04-07T02:36:55;13.80;;;10.83;;
25982;SDS011;13773;48.868;10.730;2023-04-07T02:39:21;13.63;;;11.17;;
25982;SDS011;13773;48.868;10.730;2023-04-07T02:41:46;13.07;;;10.37;;
25982;SDS011;13773;48.868;10.730;2023-04-07T02:44:12;11.37;;;9.40;;
25982;SDS011;13773;48.868;10.730;2023-04-07T02:46:38;11.93;;;9.37;;
25982;SDS011;13773;48.868;10.730;2023-04-07T02:49:03;12.23;;;9.20;;
25982;SDS011;13773;48.868;10.730;2023-04-07T02:51:29;10.60;;;8.13;;
25982;SDS011;13773;48.868;10.730;2023-04-07T02:53:55;11.27;;;9.07;;
25982;SDS011;13773;48.868;10.730;2023-04-07T02:56:21;12.63;;;8.87;;
25982;SDS011;13773;48.868;10.730;2023-04-07T02:58:47;10.00;;;8.57;;
25982;SDS011;13773;48.868;10.730;2023-04-07T03:01:12;12.90;;;9.47;;
25982;SDS011;13773;48.868;10.730;2023-04-07T03:03:38;11.10;;;8.47;;
25982;SDS011;13773;48.868;10.730;2023-04-07T03:06:06;11.33;;;8.93;;
25982;SDS011;13773;48.868;10.730;2023-04-07T03:08:32;11.03;;;9.27;;
25982;SDS011;13773;48.868;10.730;2023-04-07T03:10:57;11.63;;;9.10;;
25982;SDS011;13773;48.868;10.730;2023-04-07T03:13:23;10.33;;;8.63;;
25982;SDS011;13773;48.868;10.730;2023-04-07T03:15:49;11.03;;;8.80;;
25982;SDS011;13773;48.868;10.730;2023-04-07T03:18:15;10.13;;;8.27;;
25982;SDS011;13773;48.868;10.730;2023-04-07T03:20:40;10.53;;;7.40;;
25982;SDS011;13773;48.868;10.730;2023-04-07T03:23:06;9.43;;;7.53;;
25982;SDS011;13773;48.868;10.730;2023-04-07T03:25:32;7.70;;;6.60;;
25982;SDS011;13773;48.868;10.730;2023-04-07T03:27:58;7.10;;;6.40;;
25982;SDS011;13773;48.868;10.730;2023-04-07T03:30:24;7.47;;;5.90;;
25982;SDS011;13773;48.868;10.730;2023-04-07T03:32:49;6.23;;;5.63;;
25982;SDS011;13773;48.868;10.730;2023-04-07T03:35:15;7.60;;;6.43;;
25982;SDS011;13773;48.868;10.730;2023-04-07T03:37:41;8.97;;;6.30;;
25982;SDS011;13773;48.868;10.730;2023-04-07T03:40:06;7.40;;;6.17;;
25982;SDS011;13773;48.868;10.730;2023-04-07T03:42:32;7.90;;;6.03;;
25982;SDS011;13773;48.868;10.730;2023-04-07T03:44:58;6.30;;;5.60;;
25982;SDS011;13773;48.868;10.730;2023-04-07T03:47:24;6.60;;;5.87;;
25982;SDS011;13773;48.868;10.730;2023-04-07T03:49:49;7.40;;;5.90;;
25982;SDS011;13773;48.868;10.730;2023-04-07T03:52:15;8.53;;;6.13;;
25982;SDS011;13773;48.868;10.730;2023-04-07T03:54:41;7.00;;;5.93;;
25982;SDS011;13773;48.868;10.730;2023-04-07T03:57:07;7.53;;;6.20;;
25982;SDS011;13773;48.868;10.730;2023-04-07T03:59:34;6.57;;;5.27;;
25982;SDS011;13773;48.868;10.730;2023-04-07T04:01:59;6.37;;;5.57;;
25982;SDS011;13773;48.868;10.730;2023-04-07T04:04:25;8.93;;;6.20;;
25982;SDS011;13773;48.868;10.730;2023-04-07T04:06:51;7.70;;;5.67;;
25982;SDS011;13773;48.868;10.730;2023-04-07T04:09:17;6.50;;;5.30;;
25982;SDS011;13773;48.868;10.730;2023-04-07T04:11:42;7.67;;;5.53;;
25982;SDS011;13773;48.868;10.730;2023-04-07T04:14:08;7.57;;;5.97;;
25982;SDS011;13773;48.868;10.730;2023-04-07T04:16:34;8.93;;;6.03;;
25982;SDS011;13773;48.868;10.730;2023-04-07T04:19:00;7.20;;;6.17;;
25982;SDS011;13773;48.868;10.730;2023-04-07T04:21:26;7.20;;;5.40;;
25982;SDS011;13773;48.868;10.730;2023-04-07T04:23:52;9.33;;;5.87;;
25982;SDS011;13773;48.868;10.730;2023-04-07T04:26:17;7.63;;;6.23;;
25982;SDS011;13773;48.868;10.730;2023-04-07T04:28:43;9.10;;;6.63;;
25982;SDS011;13773;48.868;10.730;2023-04-07T04:31:09;7.17;;;6.13;;
25982;SDS011;13773;48.868;10.730;2023-04-07T04:33:35;7.50;;;6.20;;
25982;SDS011;13773;48.868;10.730;2023-04-07T04:36:00;8.10;;;6.70;;
25982;SDS011;13773;48.868;10.730;2023-04-07T04:38:26;10.10;;;7.50;;
25982;SDS011;13773;48.868;10.730;2023-04-07T04:40:52;8.13;;;7.30;;
25982;SDS011;13773;48.868;10.730;2023-04-07T04:43:17;8.70;;;7.20;;
25982;SDS011;13773;48.868;10.730;2023-04-07T04:45:43;9.03;;;7.67;;
25982;SDS011;13773;48.868;10.730;2023-04-07T04:48:09;10.53;;;8.27;;
25982;SDS011;13773;48.868;10.730;2023-04-07T04:50:35;10.47;;;8.53;;
25982;SDS011;13773;48.868;10.730;2023-04-07T04:53:01;10.73;;;8.73;;
25982;SDS011;13773;48.868;10.730;2023-04-07T04:55:27;11.00;;;8.27;;
25982;SDS011;13773;48.868;10.730;2023-04-07T04:57:52;10.40;;;8.40;;
25982;SDS011;13773;48.868;10.730;2023-04-07T05:00:18;12.00;;;9.10;;
25982;SDS011;13773;48.868;10.730;2023-04-07T05:02:45;14.83;;;9.83;;
25982;SDS011;13773;48.868;10.730;2023-04-07T05:05:11;17.83;;;11.27;;
25982;SDS011;13773;48.868;10.730;2023-04-07T05:07:36;11.83;;;8.67;;
25982;SDS011;13773;48.868;10.730;2023-04-07T05:10:05;9.83;;;8.50;;
25982;SDS011;13773;48.868;10.730;2023-04-07T05:12:31;10.63;;;9.10;;
25982;SDS011;13773;48.868;10.730;2023-04-07T05:14:57;13.73;;;10.23;;
25982;SDS011;13773;48.868;10.730;2023-04-07T05:17:23;14.30;;;9.20;;
25982;SDS011;13773;48.868;10.730;2023-04-07T05:19:48;14.17;;;10.13;;
25982;SDS011;13773;48.868;10.730;2023-04-07T05:22:14;13.10;;;10.63;;
25982;SDS011;13773;48.868;10.730;2023-04-07T05:24:40;13.97;;;10.87;;
25982;SDS011;13773;48.868;10.730;2023-04-07T05:27:06;16.27;;;12.80;;
25982;SDS011;13773;48.868;10.730;2023-04-07T05:29:31;15.73;;;11.63;;
25982;SDS011;13773;48.868;10.730;2023-04-07T05:31:57;15.57;;;11.67;;
25982;SDS011;13773;48.868;10.730;2023-04-07T05:34:25;17.90;;;12.03;;
25982;SDS011;13773;48.868;10.730;2023-04-07T05:36:51;18.33;;;12.80;;
25982;SDS011;13773;48.868;10.730;2023-04-07T05:39:17;17.13;;;12.90;;
25982;SDS011;13773;48.868;10.730;2023-04-07T05:41:44;17.13;;;12.50;;
25982;SDS011;13773;48.868;10.730;2023-04-07T05:44:09;18.30;;;12.77;;
25982;SDS011;13773;48.868;10.730;2023-04-07T05:46:35;14.83;;;11.03;;
25982;SDS011;13773;48.868;10.730;2023-04-07T05:49:01;17.07;;;11.77;;
25982;SDS011;13773;48.868;10.730;2023-04-07T05:51:26;13.97;;;10.50;;
25982;SDS011;13773;48.868;10.730;2023-04-07T05:53:52;14.37;;;11.20;;
25982;SDS011;13773;48.868;10.730;2023-04-07T05:56:18;17.50;;;11.90;;
25982;SDS011;13773;48.868;10.730;2023-04-07T05:58:44;16.80;;;11.43;;
25982;SDS011;13773;48.868;10.730;2023-04-07T06:01:10;14.93;;;11.27;;
25982;SDS011;13773;48.868;10.730;2023-04-07T06:03:35;15.07;;;11.77;;
25982;SDS011;13773;48.868;10.730;2023-04-07T06:06:01;14.83;;;11.13;;
25982;SDS011;13773;48.868;10.730;2023-04-07T06:08:27;12.67;;;10.53;;
25982;SDS011;13773;48.868;10.730;2023-04-07T06:10:52;15.67;;;11.63;;
25982;SDS011;13773;48.868;10.730;2023-04-07T06:13:18;14.70;;;11.43;;
25982;SDS011;13773;48.868;10.730;2023-04-07T06:15:44;17.67;;;11.70;;
25982;SDS011;13773;48.868;10.730;2023-04-07T06:18:10;17.30;;;13.10;;
25982;SDS011;13773;48.868;10.730;2023-04-07T06:20:35;15.27;;;11.00;;
25982;SDS011;13773;48.868;10.730;2023-04-07T06:23:01;14.90;;;11.53;;
25982;SDS011;13773;48.868;10.730;2023-04-07T06:25:27;16.40;;;12.07;;
25982;SDS011;13773;48.868;10.730;2023-04-07T06:27:53;13.57;;;10.57;;
25982;SDS011;13773;48.868;10.730;2023-04-07T06:30:19;14.73;;;11.17;;
25982;SDS011;13773;48.868;10.730;2023-04-07T06:32:45;14.73;;;10.07;;
25982;SDS011;13773;48.868;10.730;2023-04-07T06:35:11;13.40;;;10.20;;
25982;SDS011;13773;48.868;10.730;2023-04-07T06:37:36;12.13;;;9.93;;
25982;SDS011;13773;48.868;10.730;2023-04-07T06:40:03;14.17;;;10.30;;
25982;SDS011;13773;48.868;10.730;2023-04-07T06:42:30;13.20;;;10.53;;
25982;SDS011;13773;48.868;10.730;2023-04-07T06:44:56;14.53;;;10.87;;
25982;SDS011;13773;48.868;10.730;2023-04-07T06:47:21;13.43;;;9.87;;
25982;SDS011;13773;48.868;10.730;2023-04-07T06:49:48;12.33;;;9.97;;
25982;SDS011;13773;48.868;10.730;2023-04-07T06:52:13;11.73;;;9.80;;
25982;SDS011;13773;48.868;10.730;2023-04-07T06:54:39;10.90;;;9.07;;
25982;SDS011;13773;48.868;10.730;2023-04-07T06:57:05;11.03;;;9.83;;
25982;SDS011;13773;48.868;10.730;2023-04-07T06:59:36;12.17;;;10.17;;
25982;SDS011;13773;48.868;10.730;2023-04-07T07:02:02;11.27;;;9.40;;
25982;SDS011;13773;48.868;10.730;2023-04-07T07:04:40;10.20;;;8.97;;
25982;SDS011;13773;48.868;10.730;2023-04-07T07:07:06;10.67;;;9.20;;
25982;SDS011;13773;48.868;10.730;2023-04-07T07:09:32;13.10;;;9.93;;
25982;SDS011;13773;48.868;10.730;2023-04-07T07:11:57;9.87;;;8.80;;
25982;SDS011;13773;48.868;10.730;2023-04-07T07:14:26;12.10;;;9.83;;
25982;SDS011;13773;48.868;10.730;2023-04-07T07:16:51;11.20;;;9.30;;
25982;SDS011;13773;48.868;10.730;2023-04-07T07:19:17;12.70;;;9.93;;
25982;SDS011;13773;48.868;10.730;2023-04-07T07:21:43;11.73;;;10.00;;
25982;SDS011;13773;48.868;10.730;2023-04-07T07:24:08;11.00;;;8.70;;
25982;SDS011;13773;48.868;10.730;2023-04-07T07:26:34;9.63;;;8.63;;
25982;SDS011;13773;48.868;10.730;2023-04-07T07:29:00;10.70;;;9.13;;
25982;SDS011;13773;48.868;10.730;2023-04-07T07:31:25;10.50;;;9.40;;
25982;SDS011;13773;48.868;10.730;2023-04-07T07:33:51;10.87;;;8.70;;
25982;SDS011;13773;48.868;10.730;2023-04-07T07:36:17;9.93;;;8.60;;
25982;SDS011;13773;48.868;10.730;2023-04-07T07:38:42;9.53;;;8.53;;
25982;SDS011;13773;48.868;10.730;2023-04-07T07:41:08;13.87;;;9.57;;
25982;SDS011;13773;48.868;10.730;2023-04-07T07:43:34;8.93;;;8.03;;
25982;SDS011;13773;48.868;10.730;2023-04-07T07:46:01;11.87;;;8.17;;
25982;SDS011;13773;48.868;10.730;2023-04-07T07:48:27;9.17;;;8.20;;
25982;SDS011;13773;48.868;10.730;2023-04-07T07:50:52;10.37;;;8.03;;
25982;SDS011;13773;48.868;10.730;2023-04-07T07:53:20;9.47;;;8.47;;
25982;SDS011;13773;48.868;10.730;2023-04-07T07:55:46;9.83;;;8.47;;
25982;SDS011;13773;48.868;10.730;2023-04-07T07:58:12;9.40;;;8.40;;
25982;SDS011;13773;48.868;10.730;2023-04-07T08:00:38;8.83;;;7.93;;
25982;SDS011;13773;48.868;10.730;2023-04-07T08:03:03;9.17;;;8.27;;
25982;SDS011;13773;48.868;10.730;2023-04-07T08:05:29;9.00;;;7.80;;
25982;SDS011;13773;48.868;10.730;2023-04-07T08:07:55;9.90;;;8.70;;
25982;SDS011;13773;48.868;10.730;2023-04-07T08:10:21;9.70;;;8.70;;
25982;SDS011;13773;48.868;10.730;2023-04-07T08:12:49;8.83;;;7.93;;
25982;SDS011;13773;48.868;10.730;2023-04-07T08:15:14;10.30;;;8.90;;
25982;SDS011;13773;48.868;10.730;2023-04-07T08:17:40;9.10;;;8.07;;
25982;SDS011;13773;48.868;10.730;2023-04-07T08:20:06;8.87;;;7.93;;
25982;SDS011;13773;48.868;10.730;2023-04-07T08:22:32;8.63;;;7.57;;
25982;SDS011;13773;48.868;10.730;2023-04-07T08:24:58;9.30;;;8.17;;
25982;SDS011;13773;48.868;10.730;2023-04-07T08:27:24;9.07;;;8.17;;
25982;SDS011;13773;48.868;10.730;2023-04-07T08:29:59;8.97;;;8.07;;
25982;SDS011;13773;48.868;10.730;2023-04-07T08:32:37;9.37;;;8.20;;
25982;SDS011;13773;48.868;10.730;2023-04-07T08:35:05;9.73;;;8.53;;
25982;SDS011;13773;48.868;10.730;2023-04-07T08:37:31;8.57;;;7.57;;
25982;SDS011;13773;48.868;10.730;2023-04-07T08:39:58;8.83;;;7.93;;
25982;SDS011;13773;48.868;10.730;2023-04-07T08:42:28;8.90;;;7.67;;
25982;SDS011;13773;48.868;10.730;2023-04-07T08:44:55;8.23;;;7.43;;
25982;SDS011;13773;48.868;10.730;2023-04-07T08:47:24;8.30;;;7.50;;
25982;SDS011;13773;48.868;10.730;2023-04-07T08:49:51;9.10;;;7.53;;
25982;SDS011;13773;48.868;10.730;2023-04-07T08:52:23;8.87;;;7.83;;
25982;SDS011;13773;48.868;10.730;2023-04-07T08:54:57;8.80;;;7.90;;
25982;SDS011;13773;48.868;10.730;2023-04-07T08:57:27;8.97;;;7.80;;
25982;SDS011;13773;48.868;10.730;2023-04-07T08:59:56;8.53;;;7.17;;
25982;SDS011;13773;48.868;10.730;2023-04-07T09:02:24;8.90;;;8.00;;
25982;SDS011;13773;48.868;10.730;2023-04-07T09:04:51;9.43;;;8.03;;
25982;SDS011;13773;48.868;10.730;2023-04-07T09:07:16;8.63;;;7.73;;
25982;SDS011;13773;48.868;10.730;2023-04-07T09:09:42;9.60;;;8.03;;
25982;SDS011;13773;48.868;10.730;2023-04-07T09:12:08;8.83;;;7.93;;
25982;SDS011;13773;48.868;10.730;2023-04-07T09:14:33;10.50;;;9.27;;
25982;SDS011;13773;48.868;10.730;2023-04-07T09:16:59;9.13;;;8.23;;
25982;SDS011;13773;48.868;10.730;2023-04-07T09:19:25;9.40;;;8.47;;
25982;SDS011;13773;48.868;10.730;2023-04-07T09:21:52;9.03;;;7.77;;
25982;SDS011;13773;48.868;10.730;2023-04-07T09:24:22;9.00;;;8.10;;
25982;SDS011;13773;48.868;10.730;2023-04-07T09:26:49;10.03;;;9.03;;
25982;SDS011;13773;48.868;10.730;2023-04-07T09:29:19;11.17;;;9.27;;
25982;SDS011;13773;48.868;10.730;2023-04-07T09:31:48;9.40;;;8.40;;
25982;SDS011;13773;48.868;10.730;2023-04-07T09:34:32;10.20;;;8.47;;
25982;SDS011;13773;48.868;10.730;2023-04-07T09:37:02;10.67;;;8.63;;
25982;SDS011;13773;48.868;10.730;2023-04-07T09:39:29;9.27;;;8.37;;
25982;SDS011;13773;48.868;10.730;2023-04-07T09:41:55;8.80;;;7.90;;
25982;SDS011;13773;48.868;10.730;2023-04-07T09:44:22;10.13;;;8.27;;
25982;SDS011;13773;48.868;10.730;2023-04-07T09:46:52;10.57;;;8.80;;
25982;SDS011;13773;48.868;10.730;2023-04-07T09:49:20;10.67;;;8.73;;
25982;SDS011;13773;48.868;10.730;2023-04-07T09:51:55;9.03;;;8.07;;
25982;SDS011;13773;48.868;10.730;2023-04-07T09:54:36;9.60;;;8.60;;
25982;SDS011;13773;48.868;10.730;2023-04-07T09:57:03;9.17;;;8.00;;
25982;SDS011;13773;48.868;10.730;2023-04-07T09:59:30;10.07;;;8.53;;
25982;SDS011;13773;48.868;10.730;2023-04-07T10:01:57;9.43;;;8.50;;
25982;SDS011;13773;48.868;10.730;2023-04-07T10:04:24;8.67;;;7.77;;
25982;SDS011;13773;48.868;10.730;2023-04-07T10:06:51;8.87;;;7.93;;
25982;SDS011;13773;48.868;10.730;2023-04-07T10:09:18;9.47;;;8.50;;
25982;SDS011;13773;48.868;10.730;2023-04-07T10:11:45;8.80;;;7.90;;
25982;SDS011;13773;48.868;10.730;2023-04-07T10:14:11;9.53;;;8.50;;
25982;SDS011;13773;48.868;10.730;2023-04-07T10:16:37;9.23;;;8.33;;
25982;SDS011;13773;48.868;10.730;2023-04-07T10:19:04;9.00;;;7.90;;
25982;SDS011;13773;48.868;10.730;2023-04-07T10:21:31;8.50;;;7.70;;
25982;SDS011;13773;48.868;10.730;2023-04-07T10:24:13;9.03;;;8.13;;
25982;SDS011;13773;48.868;10.730;2023-04-07T10:26:57;9.23;;;8.23;;
25982;SDS011;13773;48.868;10.730;2023-04-07T10:29:28;9.00;;;8.10;;
25982;SDS011;13773;48.868;10.730;2023-04-07T10:32:00;8.30;;;7.50;;
25982;SDS011;13773;48.868;10.730;2023-04-07T10:37:12;8.43;;;7.63;;
25982;SDS011;13773;48.868;10.730;2023-04-07T10:39:41;8.23;;;7.43;;
25982;SDS011;13773;48.868;10.730;2023-04-07T10:45:11;8.93;;;8.03;;
25982;SDS011;13773;48.868;10.730;2023-04-07T10:50:27;8.10;;;7.30;;
25982;SDS011;13773;48.868;10.730;2023-04-07T10:53:06;9.00;;;7.67;;
25982;SDS011;13773;48.868;10.730;2023-04-07T10:58:16;8.57;;;7.77;;
25982;SDS011;13773;48.868;10.730;2023-04-07T11:03:36;8.53;;;7.63;;
25982;SDS011;13773;48.868;10.730;2023-04-07T11:06:03;8.63;;;7.83;;
25982;SDS011;13773;48.868;10.730;2023-04-07T11:08:34;8.50;;;7.70;;
25982;SDS011;13773;48.868;10.730;2023-04-07T11:11:09;8.93;;;8.03;;
25982;SDS011;13773;48.868;10.730;2023-04-07T11:13:46;9.00;;;8.17;;
25982;SDS011;13773;48.868;10.730;2023-04-07T11:16:14;9.23;;;8.13;;
25982;SDS011;13773;48.868;10.730;2023-04-07T11:18:42;8.60;;;7.77;;
25982;SDS011;13773;48.868;10.730;2023-04-07T11:21:08;8.47;;;7.33;;
25982;SDS011;13773;48.868;10.730;2023-04-07T11:23:43;8.17;;;7.37;;
25982;SDS011;13773;48.868;10.730;2023-04-07T11:26:10;8.40;;;7.50;;
25982;SDS011;13773;48.868;10.730;2023-04-07T11:28:44;8.73;;;7.83;;
25982;SDS011;13773;48.868;10.730;2023-04-07T11:31:11;9.30;;;8.40;;
25982;SDS011;13773;48.868;10.730;2023-04-07T11:33:37;11.37;;;8.60;;
25982;SDS011;13773;48.868;10.730;2023-04-07T11:36:05;9.90;;;8.60;;
25982;SDS011;13773;48.868;10.730;2023-04-07T11:38:37;8.97;;;8.07;;
25982;SDS011;13773;48.868;10.730;2023-04-07T11:41:10;9.00;;;8.10;;
25982;SDS011;13773;48.868;10.730;2023-04-07T11:43:36;9.67;;;8.50;;
25982;SDS011;13773;48.868;10.730;2023-04-07T11:48:31;8.63;;;7.73;;
25982;SDS011;13773;48.868;10.730;2023-04-07T11:50:58;9.30;;;8.37;;
25982;SDS011;13773;48.868;10.730;2023-04-07T11:53:28;8.83;;;7.93;;
25982;SDS011;13773;48.868;10.730;2023-04-07T11:56:04;8.67;;;7.77;;
25982;SDS011;13773;48.868;10.730;2023-04-07T11:58:33;8.37;;;7.57;;
25982;SDS011;13773;48.868;10.730;2023-04-07T12:01:03;8.57;;;7.77;;
25982;SDS011;13773;48.868;10.730;2023-04-07T12:03:36;8.37;;;7.57;;
25982;SDS011;13773;48.868;10.730;2023-04-07T12:06:02;8.70;;;7.90;;
25982;SDS011;13773;48.868;10.730;2023-04-07T12:11:08;9.90;;;7.70;;
25982;SDS011;13773;48.868;10.730;2023-04-07T12:13:37;7.83;;;7.13;;
25982;SDS011;13773;48.868;10.730;2023-04-07T12:16:03;8.37;;;7.57;;
25982;SDS011;13773;48.868;10.730;2023-04-07T12:18:30;9.10;;;8.20;;
25982;SDS011;13773;48.868;10.730;2023-04-07T12:20:55;8.50;;;7.60;;
25982;SDS011;13773;48.868;10.730;2023-04-07T12:23:22;8.23;;;7.43;;
25982;SDS011;13773;48.868;10.730;2023-04-07T12:25:48;8.30;;;7.43;;
25982;SDS011;13773;48.868;10.730;2023-04-07T12:28:14;9.70;;;7.40;;
25982;SDS011;13773;48.868;10.730;2023-04-07T12:30:40;9.50;;;8.50;;
25982;SDS011;13773;48.868;10.730;2023-04-07T12:33:06;8.80;;;7.33;;
25982;SDS011;13773;48.868;10.730;2023-04-07T12:35:31;9.20;;;7.93;;
25982;SDS011;13773;48.868;10.730;2023-04-07T12:37:57;9.23;;;7.90;;
25982;SDS011;13773;48.868;10.730;2023-04-07T12:40:23;8.63;;;7.73;;
25982;SDS011;13773;48.868;10.730;2023-04-07T12:42:49;8.17;;;7.40;;
25982;SDS011;13773;48.868;10.730;2023-04-07T12:45:14;8.20;;;7.40;;
25982;SDS011;13773;48.868;10.730;2023-04-07T12:47:40;8.83;;;7.90;;
25982;SDS011;13773;48.868;10.730;2023-04-07T12:50:08;9.00;;;8.00;;
25982;SDS011;13773;48.868;10.730;2023-04-07T12:52:35;9.03;;;7.87;;
25982;SDS011;13773;48.868;10.730;2023-04-07T12:55:01;9.10;;;7.83;;
25982;SDS011;13773;48.868;10.730;2023-04-07T12:57:27;8.97;;;8.07;;
25982;SDS011;13773;48.868;10.730;2023-04-07T12:59:53;8.67;;;7.80;;
25982;SDS011;13773;48.868;10.730;2023-04-07T13:02:19;9.10;;;8.20;;
25982;SDS011;13773;48.868;10.730;2023-04-07T13:04:45;9.37;;;8.00;;
25982;SDS011;13773;48.868;10.730;2023-04-07T13:07:11;9.30;;;7.50;;
25982;SDS011;13773;48.868;10.730;2023-04-07T13:09:38;8.33;;;7.40;;
25982;SDS011;13773;48.868;10.730;2023-04-07T13:12:07;9.23;;;8.33;;
25982;SDS011;13773;48.868;10.730;2023-04-07T13:14:37;8.67;;;7.87;;
25982;SDS011;13773;48.868;10.730;2023-04-07T13:17:04;11.40;;;8.27;;
25982;SDS011;13773;48.868;10.730;2023-04-07T13:19:30;8.23;;;7.43;;
25982;SDS011;13773;48.868;10.730;2023-04-07T13:21:55;18.50;;;16.60;;
25982;SDS011;13773;48.868;10.730;2023-04-07T13:24:21;10.97;;;9.13;;
25982;SDS011;13773;48.868;10.730;2023-04-07T13:26:47;8.80;;;7.90;;
25982;SDS011;13773;48.868;10.730;2023-04-07T13:29:13;8.37;;;7.57;;
25982;SDS011;13773;48.868;10.730;2023-04-07T13:31:40;9.93;;;7.80;;
25982;SDS011;13773;48.868;10.730;2023-04-07T13:34:05;8.57;;;7.77;;
25982;SDS011;13773;48.868;10.730;2023-04-07T13:36:31;9.57;;;8.53;;
25982;SDS011;13773;48.868;10.730;2023-04-07T13:38:57;9.90;;;8.33;;
25982;SDS011;13773;48.868;10.730;2023-04-07T13:41:23;9.90;;;8.17;;
25982;SDS011;13773;48.868;10.730;2023-04-07T13:43:50;8.53;;;7.73;;
25982;SDS011;13773;48.868;10.730;2023-04-07T13:46:16;10.07;;;8.23;;
25982;SDS011;13773;48.868;10.730;2023-04-07T13:48:45;9.10;;;8.20;;
25982;SDS011;13773;48.868;10.730;2023-04-07T13:51:11;10.33;;;8.10;;
25982;SDS011;13773;48.868;10.730;2023-04-07T13:53:36;9.20;;;8.30;;
25982;SDS011;13773;48.868;10.730;2023-04-07T13:56:02;9.37;;;8.37;;
25982;SDS011;13773;48.868;10.730;2023-04-07T13:58:32;9.27;;;7.97;;
25982;SDS011;13773;48.868;10.730;2023-04-07T14:00:58;9.40;;;7.93;;
25982;SDS011;13773;48.868;10.730;2023-04-07T14:03:24;9.37;;;8.37;;
25982;SDS011;13773;48.868;10.730;2023-04-07T14:05:49;8.50;;;7.70;;
25982;SDS011;13773;48.868;10.730;2023-04-07T14:08:15;8.17;;;7.37;;
25982;SDS011;13773;48.868;10.730;2023-04-07T14:10:43;20.50;;;15.50;;
25982;SDS011;13773;48.868;10.730;2023-04-07T14:13:08;9.67;;;8.17;;
25982;SDS011;13773;48.868;10.730;2023-04-07T14:15:35;9.63;;;7.67;;
25982;SDS011;13773;48.868;10.730;2023-04-07T14:18:01;9.07;;;8.17;;
25982;SDS011;13773;48.868;10.730;2023-04-07T14:20:27;8.33;;;7.07;;
25982;SDS011;13773;48.868;10.730;2023-04-07T14:22:53;13.03;;;9.80;;
25982;SDS011;13773;48.868;10.730;2023-04-07T14:25:18;8.60;;;7.43;;
25982;SDS011;13773;48.868;10.730;2023-04-07T14:27:44;9.27;;;8.27;;
25982;SDS011;13773;48.868;10.730;2023-04-07T14:30:10;15.90;;;11.10;;
25982;SDS011;13773;48.868;10.730;2023-04-07T14:32:36;22.87;;;18.07;;
25982;SDS011;13773;48.868;10.730;2023-04-07T14:35:02;12.73;;;10.70;;
25982;SDS011;13773;48.868;10.730;2023-04-07T14:37:28;11.10;;;8.80;;
25982;SDS011;13773;48.868;10.730;2023-04-07T14:39:54;8.20;;;7.23;;
25982;SDS011;13773;48.868;10.730;2023-04-07T14:42:19;8.10;;;7.30;;
25982;SDS011;13773;48.868;10.730;2023-04-07T14:44:45;8.03;;;7.30;;
25982;SDS011;13773;48.868;10.730;2023-04-07T14:47:11;8.47;;;7.67;;
25982;SDS011;13773;48.868;10.730;2023-04-07T14:49:37;7.60;;;6.90;;
25982;SDS011;13773;48.868;10.730;2023-04-07T14:52:03;8.77;;;7.37;;